Time;durP1;ratioP1;P1;durP2;ratioP2;P2;SDS_P1;SDS_P2;PMS_P1;PMS_P2;Temp;Humidity;BMP_temperature;BMP_pressure;BME280_temperature;BME280_humidity;BME280_pressure;Samples;Min_cycle;Max_cycle;Signal;HPM_P1;HPM_P2
2024/04/14 00:04:20;;;;;;;;;;;;;;;19.46;49.83;99966.56;11174035;26;1840;-70
2024/04/14 00:09:16;;;;;;;;;;;;;;;19.47;49.54;99967.44;11173915;26;882;-70
2024/04/14 00:14:12;;;;;;;;;;;;;;;19.46;49.58;99973.66;11174172;26;1127;-69
2024/04/14 00:19:08;;;;;;;;;;;;;;;19.46;49.59;99974.50;11173537;26;879;-70
2024/04/14 00:24:04;;;;;;;;;;;;;;;19.46;49.56;99977.13;11173899;26;1842;-70
2024/04/14 00:29:00;;;;;;;;;;;;;;;19.46;49.97;99977.13;11173834;26;879;-70
2024/04/14 00:33:56;;;;;;;;;;;;;;;19.45;49.68;99975.44;11172879;26;958;-70
2024/04/14 00:38:52;;;;;;;;;;;;;;;19.45;49.74;99986.00;11173479;26;889;-70
2024/04/14 00:43:47;;;;;;;;;;;;;;;19.45;49.67;99985.16;11179139;26;1931;-70
2024/04/14 00:48:43;;;;;;;;;;;;;;;19.45;49.60;99986.00;11180441;26;1065;-70
2024/04/14 00:53:39;;;;;;;;;;;;;;;19.45;49.57;99987.81;11180739;26;807;-70
2024/04/14 00:58:35;;;;;;;;;;;;;;;19.44;49.61;99984.31;11180324;26;807;-70
2024/04/14 01:03:32;;;;;;;;;;;;;;;19.44;49.47;99989.59;11179250;26;1858;-70
2024/04/14 01:08:28;;;;;;;;;;;;;;;19.43;49.56;99998.44;11179389;26;864;-70
2024/04/14 01:13:24;;;;;;;;;;;;;;;19.43;49.43;100009.00;11179158;26;856;-70
2024/04/14 01:18:20;;;;;;;;;;;;;;;19.43;49.53;100016.94;11178880;26;867;-70
2024/04/14 01:23:16;;;;;;;;;;;;;;;19.43;49.46;100030.16;11178874;26;1863;-70
2024/04/14 01:28:12;;;;;;;;;;;;;;;19.43;49.10;100032.81;11179513;26;879;-70
2024/04/14 01:33:08;;;;;;;;;;;;;;;19.43;49.03;100037.25;11178709;26;934;-70
2024/04/14 01:38:04;;;;;;;;;;;;;;;19.42;48.70;100032.91;11179223;26;884;-70
2024/04/14 01:43:00;;;;;;;;;;;;;;;19.41;49.03;100037.31;11178315;26;1844;-70
2024/04/14 01:47:56;;;;;;;;;;;;;;;19.41;49.28;100041.72;11178118;26;901;-70
2024/04/14 01:52:51;;;;;;;;;;;;;;;19.40;49.03;100037.38;11176964;26;906;-70
2024/04/14 01:57:47;;;;;;;;;;;;;;;19.40;49.09;100046.16;11176331;26;777;-70
2024/04/14 02:02:43;;;;;;;;;;;;;;;19.38;49.23;100045.38;11176998;26;1848;-70
2024/04/14 02:07:39;;;;;;;;;;;;;;;19.39;48.97;100062.97;11176976;26;895;-70
2024/04/14 02:12:35;;;;;;;;;;;;;;;19.38;49.12;100060.38;11177479;26;915;-70
2024/04/14 02:17:31;;;;;;;;;;;;;;;19.38;48.90;100069.16;11176971;26;920;-70
2024/04/14 02:22:27;;;;;;;;;;;;;;;19.37;48.97;100067.47;11176508;26;1868;-70
2024/04/14 02:27:22;;;;;;;;;;;;;;;19.37;48.84;100075.38;11177072;26;882;-70
2024/04/14 02:32:18;;;;;;;;;;;;;;;19.36;48.92;100081.59;11176252;26;890;-70
2024/04/14 02:37:14;;;;;;;;;;;;;;;19.37;48.91;100090.41;11176139;26;902;-70
2024/04/14 02:42:10;;;;;;;;;;;;;;;19.36;49.01;100086.91;11175839;26;1825;-70
2024/04/14 02:47:06;;;;;;;;;;;;;;;19.35;48.91;100081.66;11176099;26;851;-70
2024/04/14 02:52:02;;;;;;;;;;;;;;;19.34;49.00;100086.09;11175723;26;804;-70
2024/04/14 02:56:58;;;;;;;;;;;;;;;19.34;48.96;100079.97;11176182;26;868;-70
2024/04/14 03:01:54;;;;;;;;;;;;;;;19.32;48.69;100082.66;11175924;26;1829;-70
2024/04/14 03:06:50;;;;;;;;;;;;;;;19.34;48.76;100077.31;11175710;26;876;-70
2024/04/14 03:11:46;;;;;;;;;;;;;;;19.33;48.49;100080.88;11175737;26;857;-70
2024/04/14 03:16:41;;;;;;;;;;;;;;;19.32;48.56;100080.03;11175438;26;1040;-70
2024/04/14 03:21:37;;;;;;;;;;;;;;;19.31;48.64;100088.88;11175413;26;1829;-70
2024/04/14 03:26:33;;;;;;;;;;;;;;;19.30;48.61;100086.28;11176168;26;840;-70
2024/04/14 03:31:29;;;;;;;;;;;;;;;19.30;48.91;100095.06;11175203;26;928;-70
2024/04/14 03:36:25;;;;;;;;;;;;;;;19.30;49.01;100097.72;11175095;26;925;-70
2024/04/14 03:41:22;;;;;;;;;;;;;;;19.29;48.71;100096.00;11174831;26;1820;-70
2024/04/14 03:46:18;;;;;;;;;;;;;;;19.29;48.88;100096.00;11174713;26;879;-70
2024/04/14 03:51:14;;;;;;;;;;;;;;;19.28;48.96;100091.63;11174313;26;851;-70
2024/04/14 03:56:10;;;;;;;;;;;;;;;19.27;48.80;100103.16;11174427;26;890;-70
2024/04/14 04:01:06;;;;;;;;;;;;;;;19.26;48.84;100107.59;11173560;26;1816;-70
2024/04/14 04:06:03;;;;;;;;;;;;;;;19.26;48.84;100104.94;11173408;26;829;-70
2024/04/14 04:10:59;;;;;;;;;;;;;;;19.29;49.05;100097.81;11173263;26;876;-70
2024/04/14 04:15:54;;;;;;;;;;;;;;;19.30;48.90;100095.06;11172791;26;923;-70
2024/04/14 04:20:50;;;;;;;;;;;;;;;19.31;49.02;100110.03;11172647;26;1856;-70
2024/04/14 04:25:46;;;;;;;;;;;;;;;19.33;49.08;100113.44;11173497;26;810;-70
2024/04/14 04:30:42;;;;;;;;;;;;;;;19.36;49.02;100112.44;11173150;26;796;-70
2024/04/14 04:35:38;;;;;;;;;;;;;;;19.37;48.92;100122.13;11172964;26;894;-70
2024/04/14 04:40:34;;;;;;;;;;;;;;;19.37;49.01;100122.13;11172087;26;1825;-70
2024/04/14 04:45:30;;;;;;;;;;;;;;;19.39;48.96;100136.97;11172594;26;938;-70
2024/04/14 04:50:25;;;;;;;;;;;;;;;19.40;49.01;100125.47;11172046;26;863;-70
2024/04/14 04:55:22;;;;;;;;;;;;;;;19.42;48.97;100131.56;11171613;26;817;-72
2024/04/14 05:00:18;;;;;;;;;;;;;;;19.43;48.96;100122.69;11171680;26;1840;-70
2024/04/14 05:05:14;;;;;;;;;;;;;;;19.45;49.01;100143.78;11172529;26;934;-70
2024/04/14 05:10:09;;;;;;;;;;;;;;;19.44;49.01;100145.56;11171712;26;856;-70
2024/04/14 05:15:06;;;;;;;;;;;;;;;19.46;49.04;100158.69;11171685;26;868;-70
2024/04/14 05:20:02;;;;;;;;;;;;;;;19.47;49.07;100156.00;11171249;26;1832;-69
2024/04/14 05:24:58;;;;;;;;;;;;;;;19.48;48.97;100155.06;11171114;26;966;-75
2024/04/14 05:29:54;;;;;;;;;;;;;;;19.49;48.88;100164.75;11177837;26;890;-74
2024/04/14 05:34:50;;;;;;;;;;;;;;;19.51;49.13;100166.44;11178656;26;867;-75
2024/04/14 05:39:46;;;;;;;;;;;;;;;19.51;49.02;100171.72;11178423;26;1829;-74
2024/04/14 05:44:42;;;;;;;;;;;;;;;19.52;49.03;100184.00;11178365;26;858;-74
2024/04/14 05:49:38;;;;;;;;;;;;;;;19.53;48.87;100183.09;11178183;26;863;-74
2024/04/14 05:54:33;;;;;;;;;;;;;;;19.54;48.92;100179.53;11178097;26;866;-74
2024/04/14 05:59:29;;;;;;;;;;;;;;;19.54;48.96;100188.31;11177469;26;1058;-76
2024/04/14 06:04:25;;;;;;;;;;;;;;;19.55;48.95;100182.13;11177766;26;1841;-75
2024/04/14 06:09:23;;;;;;;;;;;;;;;19.57;48.70;100188.19;11176944;26;952;-69
2024/04/14 06:14:19;;;;;;;;;;;;;;;19.57;48.93;100176.75;11176882;26;857;-69
2024/04/14 06:19:17;;;;;;;;;;;;;;;19.59;48.91;100198.69;11176628;26;894;-69
2024/04/14 06:24:12;;;;;;;;;;;;;;;19.58;48.78;100197.84;11176495;26;1825;-73
2024/04/14 06:29:08;;;;;;;;;;;;;;;19.60;48.91;100200.44;11176457;26;867;-69
2024/04/14 06:34:05;;;;;;;;;;;;;;;19.59;48.83;100183.69;11176275;26;825;-69
2024/04/14 06:39:01;;;;;;;;;;;;;;;19.62;48.75;100195.91;11175544;26;1028;-69
2024/04/14 06:43:57;;;;;;;;;;;;;;;19.62;48.72;100199.44;11175857;26;1824;-69
2024/04/14 06:48:53;;;;;;;;;;;;;;;19.63;49.01;100206.44;11175845;26;883;-68
2024/04/14 06:53:49;;;;;;;;;;;;;;;19.63;49.09;100208.22;11175690;26;985;-69
2024/04/14 06:58:45;;;;;;;;;;;;;;;19.64;48.95;100209.94;11175634;26;868;-68
2024/04/14 07:03:40;;;;;;;;;;;;;;;19.64;48.81;100217.88;11175873;26;1846;-69
2024/04/14 07:08:36;;;;;;;;;;;;;;;19.65;48.93;100219.59;11176645;26;897;-69
2024/04/14 07:13:32;;;;;;;;;;;;;;;19.66;48.87;100218.66;11175778;26;986;-69
2024/04/14 07:18:28;;;;;;;;;;;;;;;19.66;49.02;100216.91;11175668;26;873;-69
2024/04/14 07:23:24;;;;;;;;;;;;;;;19.67;48.96;100218.59;11175384;26;1833;-69
2024/04/14 07:28:20;;;;;;;;;;;;;;;19.68;48.96;100222.13;11176007;26;945;-69
2024/04/14 07:33:16;;;;;;;;;;;;;;;19.68;48.81;100227.44;11175165;26;1055;-68
2024/04/14 07:38:11;;;;;;;;;;;;;;;19.68;48.89;100219.50;11172787;26;1273;-68
2024/04/14 07:43:07;;;;;;;;;;;;;;;19.68;48.83;100223.00;11169059;26;1837;-69
2024/04/14 07:48:03;;;;;;;;;;;;;;;19.69;48.84;100229.13;11173508;26;868;-69
2024/04/14 07:52:59;;;;;;;;;;;;;;;19.69;48.88;100229.13;11171557;26;898;-69
2024/04/14 07:57:55;;;;;;;;;;;;;;;19.70;48.97;100230.84;11173364;26;806;-67
2024/04/14 08:02:51;;;;;;;;;;;;;;;19.71;48.82;100229.94;11172885;26;1867;-68
2024/04/14 08:07:47;;;;;;;;;;;;;;;19.73;48.95;100243.97;11173729;26;966;-68
2024/04/14 08:12:43;;;;;;;;;;;;;;;19.72;48.98;100236.94;11173194;26;917;-68
2024/04/14 08:17:39;;;;;;;;;;;;;;;19.73;49.12;100243.06;11173759;26;941;-69
2024/04/14 08:22:34;;;;;;;;;;;;;;;19.74;48.93;100248.31;11172552;26;1866;-69
2024/04/14 08:27:30;;;;;;;;;;;;;;;19.73;48.80;100246.59;11173026;26;867;-71
2024/04/14 08:32:26;;;;;;;;;;;;;;;19.76;49.13;100258.84;11172276;26;983;-70
2024/04/14 08:37:22;;;;;;;;;;;;;;;19.76;49.02;100258.84;11172661;26;820;-69
2024/04/14 08:42:18;;;;;;;;;;;;;;;19.77;48.95;100273.78;11171911;26;1870;-69
2024/04/14 08:47:14;;;;;;;;;;;;;;;19.76;49.14;100264.97;11172338;26;832;-69
2024/04/14 08:52:10;;;;;;;;;;;;;;;19.77;48.99;100265.84;11171623;26;883;-71
2024/04/14 08:57:06;;;;;;;;;;;;;;;19.77;48.83;100276.41;11171897;26;850;-68
2024/04/14 09:02:02;;;;;;;;;;;;;;;19.77;48.90;100271.13;11173287;26;1855;-71
2024/04/14 09:06:57;;;;;;;;;;;;;;;19.78;49.00;100278.13;11178490;26;900;-70
2024/04/14 09:11:53;;;;;;;;;;;;;;;19.80;48.86;100279.78;11177979;26;935;-68
2024/04/14 09:16:49;;;;;;;;;;;;;;;19.79;49.01;100279.88;11178118;26;989;-69
2024/04/14 09:21:45;;;;;;;;;;;;;;;19.79;48.85;100288.66;11177392;26;1853;-68
2024/04/14 09:26:43;;;;;;;;;;;;;;;19.80;48.91;100287.72;11177549;26;993;-69
2024/04/14 09:31:39;;;;;;;;;;;;;;;19.81;48.80;100288.59;11177080;26;1067;-68
2024/04/14 09:36:34;;;;;;;;;;;;;;;19.81;49.07;100276.22;11177239;26;1040;-71
2024/04/14 09:41:30;;;;;;;;;;;;;;;19.81;49.05;100294.75;11176428;26;1852;-72
2024/04/14 09:46:26;;;;;;;;;;;;;;;19.83;48.90;100286.72;11176969;26;814;-69
2024/04/14 09:51:22;;;;;;;;;;;;;;;19.83;48.94;100290.25;11177664;26;896;-69
2024/04/14 09:56:18;;;;;;;;;;;;;;;19.87;48.70;100275.09;11176875;26;895;-68
2024/04/14 10:01:14;;;;;;;;;;;;;;;19.84;48.65;100284.03;11123795;26;1837;-68
2024/04/14 10:06:10;;;;;;;;;;;;;;;19.86;48.52;100292.75;11102776;26;864;-71
2024/04/14 10:11:06;;;;;;;;;;;;;;;19.87;48.68;100291.81;11102627;26;811;-70
2024/04/14 10:16:01;;;;;;;;;;;;;;;19.87;48.82;100299.75;11101778;26;950;-70
2024/04/14 10:20:58;;;;;;;;;;;;;;;19.88;48.61;100293.53;11102694;26;1856;-72
2024/04/14 10:25:53;;;;;;;;;;;;;;;19.89;48.63;100275.91;11102912;26;883;-71
2024/04/14 10:30:49;;;;;;;;;;;;;;;19.91;48.72;100282.84;11102355;26;816;-70
2024/04/14 10:35:45;;;;;;;;;;;;;;;19.95;48.51;100282.69;11102549;26;834;-71
2024/04/14 10:40:41;;;;;;;;;;;;;;;19.95;48.64;100280.06;11100547;26;1836;-67
2024/04/14 10:45:37;;;;;;;;;;;;;;;19.94;48.60;100284.50;11101403;26;1493;-67
2024/04/14 10:50:33;;;;;;;;;;;;;;;19.95;48.49;100285.34;11101206;26;1200;-67
2024/04/14 10:55:29;;;;;;;;;;;;;;;19.93;48.58;100283.59;11100471;26;1356;-65
2024/04/14 11:00:26;;;;;;;;;;;;;;;19.93;48.63;100272.16;11100675;26;1832;-65
2024/04/14 11:05:21;;;;;;;;;;;;;;;19.94;48.44;100276.56;11101105;26;1029;-67
2024/04/14 11:10:17;;;;;;;;;;;;;;;19.93;48.35;100272.16;11100722;26;874;-68
2024/04/14 11:15:13;;;;;;;;;;;;;;;19.95;48.53;100267.69;11100587;26;1365;-67
2024/04/14 11:20:09;;;;;;;;;;;;;;;19.99;48.32;100271.91;11101521;26;1850;-68
2024/04/14 11:25:05;;;;;;;;;;;;;;;19.99;48.38;100263.09;11100340;26;1369;-67
2024/04/14 11:30:01;;;;;;;;;;;;;;;20.02;48.64;100265.63;11100592;26;851;-67
2024/04/14 11:34:59;;;;;;;;;;;;;;;20.02;48.60;100263.00;11100084;26;1322;-69
2024/04/14 11:39:56;;;;;;;;;;;;;;;20.03;48.42;100259.41;11100124;26;1852;-69
2024/04/14 11:44:52;;;;;;;;;;;;;;;20.02;48.44;100260.34;11100372;26;1440;-67
2024/04/14 11:49:48;;;;;;;;;;;;;;;20.00;48.28;100275.41;11100172;26;1547;-69
2024/04/14 11:54:44;;;;;;;;;;;;;;;19.98;47.94;100272.81;11097230;26;1496;-68
2024/04/14 11:59:40;;;;;;;;;;;;;;;19.99;47.93;100271.03;11099130;26;1523;-68
2024/04/14 12:04:35;;;;;;;;;;;;;;;19.98;47.91;100270.19;11099240;26;1837;-67
2024/04/14 12:09:32;;;;;;;;;;;;;;;19.96;48.02;100261.44;11098985;26;1528;-67
2024/04/14 12:14:28;;;;;;;;;;;;;;;19.97;47.78;100260.53;11098843;26;1591;-68
2024/04/14 12:19:24;;;;;;;;;;;;;;;19.99;47.75;100263.09;11098845;26;802;-68
2024/04/14 12:24:20;;;;;;;;;;;;;;;19.98;47.76;100271.97;11098993;26;1837;-67
2024/04/14 12:29:17;;;;;;;;;;;;;;;19.98;47.54;100262.25;11098655;26;947;-68
2024/04/14 12:34:13;;;;;;;;;;;;;;;20.00;47.49;100254.25;11097508;26;1345;-68
2024/04/14 12:39:09;;;;;;;;;;;;;;;19.97;47.59;100244.66;11103865;26;949;-68
2024/04/14 12:44:05;;;;;;;;;;;;;;;19.99;47.93;100239.28;11104755;26;1833;-68
2024/04/14 12:49:01;;;;;;;;;;;;;;;20.00;47.86;100227.78;11103742;26;1508;-69
2024/04/14 12:53:57;;;;;;;;;;;;;;;20.01;47.52;100226.84;11105103;26;1449;-69
2024/04/14 12:58:53;;;;;;;;;;;;;;;19.99;47.61;100212.81;11104172;26;1386;-69
2024/04/14 13:03:49;;;;;;;;;;;;;;;20.01;47.47;100205.69;11103298;26;1864;-68
2024/04/14 13:08:44;;;;;;;;;;;;;;;20.00;47.31;100198.69;11104285;26;1614;-69
2024/04/14 13:13:40;;;;;;;;;;;;;;;20.04;47.24;100197.59;11105094;26;888;-69
2024/04/14 13:18:36;;;;;;;;;;;;;;;20.05;47.49;100196.69;11104086;26;1584;-69
2024/04/14 13:23:32;;;;;;;;;;;;;;;20.04;47.36;100172.03;11104881;26;1852;-70
2024/04/14 13:28:30;;;;;;;;;;;;;;;20.05;47.02;100175.53;11103716;26;1468;-70
2024/04/14 13:33:26;;;;;;;;;;;;;;;20.09;47.04;100174.44;11103986;26;1481;-69
2024/04/14 13:38:22;;;;;;;;;;;;;;;20.12;47.34;100171.63;11102403;26;1536;-67
2024/04/14 13:43:18;;;;;;;;;;;;;;;20.11;47.34;100164.63;11104350;26;1829;-67
2024/04/14 13:48:14;;;;;;;;;;;;;;;20.08;47.53;100159.50;11102305;26;929;-67
2024/04/14 13:53:09;;;;;;;;;;;;;;;20.19;47.20;100153.69;11103425;26;856;-67
2024/04/14 13:58:05;;;;;;;;;;;;;;;20.26;46.80;100156.00;11103291;26;914;-67
2024/04/14 14:03:01;;;;;;;;;;;;;;;20.31;46.86;100151.34;11103945;26;1854;-67
2024/04/14 14:07:57;;;;;;;;;;;;;;;20.35;46.97;100136.16;11103683;26;864;-67
2024/04/14 14:12:53;;;;;;;;;;;;;;;20.39;47.20;100136.88;11103556;26;840;-67
2024/04/14 14:17:49;;;;;;;;;;;;;;;20.47;46.89;100129.44;11103420;26;932;-67
2024/04/14 14:22:45;;;;;;;;;;;;;;;20.51;47.06;100125.69;11103130;26;1846;-67
2024/04/14 14:27:41;;;;;;;;;;;;;;;20.49;47.21;100132.88;11103719;26;977;-67
2024/04/14 14:32:39;;;;;;;;;;;;;;;20.45;47.00;100126.84;11103738;26;820;-67
2024/04/14 14:37:36;;;;;;;;;;;;;;;20.44;46.91;100119.00;11102819;26;832;-67
2024/04/14 14:42:32;;;;;;;;;;;;;;;20.49;47.34;100122.28;11103321;26;1833;-67
2024/04/14 14:47:27;;;;;;;;;;;;;;;20.56;46.99;100113.09;11102710;26;970;-67
2024/04/14 14:52:23;;;;;;;;;;;;;;;20.56;46.72;100103.38;11101917;26;1436;-69
2024/04/14 14:57:19;;;;;;;;;;;;;;;20.61;47.35;100099.66;11101701;26;1500;-68
2024/04/14 15:02:15;;;;;;;;;;;;;;;20.53;47.12;100102.63;11101595;26;1860;-69
2024/04/14 15:07:11;;;;;;;;;;;;;;;20.54;47.08;100101.72;11101713;26;1470;-68
2024/04/14 15:12:07;;;;;;;;;;;;;;;20.56;46.99;100097.22;11100148;26;1341;-74
2024/04/14 15:17:03;;;;;;;;;;;;;;;20.58;47.06;100095.34;11101017;26;1646;-69
2024/04/14 15:21:59;;;;;;;;;;;;;;;20.57;46.99;100089.22;11101088;26;1868;-68
2024/04/14 15:26:54;;;;;;;;;;;;;;;20.55;47.57;100083.13;11100721;26;835;-68
2024/04/14 15:31:50;;;;;;;;;;;;;;;20.49;47.14;100080.75;11100583;26;1614;-68
2024/04/14 15:36:46;;;;;;;;;;;;;;;20.47;47.30;100087.06;11100245;26;838;-68
2024/04/14 15:41:42;;;;;;;;;;;;;;;20.45;47.43;100073.88;11118303;26;1841;-70
2024/04/14 15:46:38;;;;;;;;;;;;;;;20.44;46.77;100071.31;11160539;26;1621;-69
2024/04/14 15:51:34;;;;;;;;;;;;;;;20.42;47.11;100068.75;11100677;26;855;-68
2024/04/14 15:56:30;;;;;;;;;;;;;;;20.41;46.93;100056.44;11100379;26;978;-67
2024/04/14 16:01:26;;;;;;;;;;;;;;;20.39;47.04;100063.59;11098950;26;1826;-67
2024/04/14 16:06:21;;;;;;;;;;;;;;;20.36;47.00;100061.97;11130650;26;1504;-67
2024/04/14 16:11:17;;;;;;;;;;;;;;;20.35;47.19;100044.34;11138337;26;1354;-67
2024/04/14 16:16:13;;;;;;;;;;;;;;;20.33;46.98;100046.22;11097197;26;1990;-67
2024/04/14 16:21:09;;;;;;;;;;;;;;;20.33;46.56;100046.22;11104728;26;1846;-68
2024/04/14 16:26:05;;;;;;;;;;;;;;;20.31;46.74;100048.09;11113500;26;1595;-67
2024/04/14 16:31:01;;;;;;;;;;;;;;;20.29;47.10;100042.00;11098285;26;1434;-69
2024/04/14 16:35:57;;;;;;;;;;;;;;;20.27;47.02;100033.28;11098800;26;825;-67
2024/04/14 16:40:53;;;;;;;;;;;;;;;20.26;47.04;100036.88;11098251;26;1855;-68
2024/04/14 16:45:49;;;;;;;;;;;;;;;20.24;46.61;100020.19;11098165;26;865;-69
2024/04/14 16:50:45;;;;;;;;;;;;;;;20.24;46.91;100024.66;11097969;26;867;-69
2024/04/14 16:55:40;;;;;;;;;;;;;;;20.22;46.99;100019.41;11097767;26;821;-72
2024/04/14 17:00:36;;;;;;;;;;;;;;;20.20;46.63;100010.72;11097924;26;1830;-68
2024/04/14 17:05:32;;;;;;;;;;;;;;;20.20;46.86;100018.66;11098061;26;855;-68
2024/04/14 17:10:28;;;;;;;;;;;;;;;20.19;46.80;100018.72;11097598;26;887;-68
2024/04/14 17:15:24;;;;;;;;;;;;;;;20.17;46.75;100010.84;11097077;26;878;-68
2024/04/14 17:20:20;;;;;;;;;;;;;;;20.17;47.14;100009.97;11096879;26;1826;-68
2024/04/14 17:25:16;;;;;;;;;;;;;;;20.17;47.17;99999.41;11102807;26;914;-69
2024/04/14 17:30:12;;;;;;;;;;;;;;;20.17;47.12;99999.41;11104247;26;943;-69
2024/04/14 17:35:07;;;;;;;;;;;;;;;20.16;46.96;99995.06;11104805;26;802;-68
2024/04/14 17:40:03;;;;;;;;;;;;;;;20.15;46.87;99980.97;11103815;26;1818;-68
2024/04/14 17:44:59;;;;;;;;;;;;;;;20.14;46.74;99963.34;11103820;26;934;-68
2024/04/14 17:49:55;;;;;;;;;;;;;;;20.14;47.35;99969.50;11103658;26;958;-69
2024/04/14 17:54:51;;;;;;;;;;;;;;;20.14;47.03;99973.94;11104078;26;941;-70
2024/04/14 17:59:47;;;;;;;;;;;;;;;20.13;47.27;99970.44;11103286;26;1235;-68
2024/04/14 18:04:43;;;;;;;;;;;;;;;20.13;47.21;99957.22;11102489;26;1842;-69
2024/04/14 18:09:39;;;;;;;;;;;;;;;20.13;47.21;99951.06;11102462;26;898;-68
2024/04/14 18:14:34;;;;;;;;;;;;;;;20.12;47.29;99944.03;11102263;26;994;-69
2024/04/14 18:19:30;;;;;;;;;;;;;;;20.12;47.23;99944.03;11102860;26;902;-69
2024/04/14 18:24:27;;;;;;;;;;;;;;;20.12;46.99;99938.75;11101954;26;1845;-69
2024/04/14 18:29:24;;;;;;;;;;;;;;;20.11;47.26;99932.59;11102061;26;817;-69
2024/04/14 18:34:20;;;;;;;;;;;;;;;20.10;47.26;99936.19;11100935;26;798;-69
2024/04/14 18:39:16;;;;;;;;;;;;;;;20.10;47.04;99930.06;11101679;26;1150;-68
2024/04/14 18:44:12;;;;;;;;;;;;;;;20.11;47.36;99935.25;11101430;26;1852;-69
2024/04/14 18:49:08;;;;;;;;;;;;;;;20.11;47.19;99931.75;11101292;26;886;-68
2024/04/14 18:54:04;;;;;;;;;;;;;;;20.10;47.34;99919.47;11101792;26;954;-69
2024/04/14 18:59:00;;;;;;;;;;;;;;;20.10;46.98;99927.41;11100867;26;944;-68
2024/04/14 19:03:55;;;;;;;;;;;;;;;20.10;47.08;99927.41;11102199;26;1825;-69
2024/04/14 19:08:51;;;;;;;;;;;;;;;20.10;46.99;99919.47;11102043;26;829;-68
2024/04/14 19:13:47;;;;;;;;;;;;;;;20.10;47.41;99911.53;11101220;26;898;-69
2024/04/14 19:18:43;;;;;;;;;;;;;;;20.11;47.27;99921.19;11101127;26;847;-69
2024/04/14 19:23:39;;;;;;;;;;;;;;;20.10;47.00;99916.81;11100950;26;1829;-68
2024/04/14 19:28:35;;;;;;;;;;;;;;;20.09;47.44;99888.63;11100829;26;871;-69
2024/04/14 19:33:31;;;;;;;;;;;;;;;20.09;47.08;99892.13;11101307;26;962;-69
2024/04/14 19:38:28;;;;;;;;;;;;;;;20.09;47.13;99886.00;11101281;26;818;-69
2024/04/14 19:43:24;;;;;;;;;;;;;;;20.08;47.22;99884.28;11100358;26;1829;-68
2024/04/14 19:48:20;;;;;;;;;;;;;;;20.07;47.07;99877.28;11098572;26;1041;-68
2024/04/14 19:53:15;;;;;;;;;;;;;;;20.07;47.48;99869.34;11100694;26;917;-68
2024/04/14 19:58:11;;;;;;;;;;;;;;;20.07;47.34;99853.47;11099875;26;859;-68
2024/04/14 20:03:07;;;;;;;;;;;;;;;20.07;47.22;99850.84;11098864;26;1826;-68
2024/04/14 20:08:03;;;;;;;;;;;;;;;20.05;47.42;99844.75;11099622;26;1023;-68
2024/04/14 20:12:59;;;;;;;;;;;;;;;20.04;47.21;99833.31;11099568;26;953;-68
2024/04/14 20:17:55;;;;;;;;;;;;;;;20.03;47.25;99826.31;11098655;26;891;-68
2024/04/14 20:22:51;;;;;;;;;;;;;;;20.04;47.47;99824.50;11098492;26;1920;-68
2024/04/14 20:27:47;;;;;;;;;;;;;;;20.03;47.39;99817.50;11098282;26;911;-68
2024/04/14 20:32:43;;;;;;;;;;;;;;;20.02;47.35;99813.16;11098155;26;826;-68
2024/04/14 20:37:39;;;;;;;;;;;;;;;20.02;47.58;99805.22;11098165;26;814;-68
2024/04/14 20:42:35;;;;;;;;;;;;;;;20.00;47.51;99789.41;11097734;26;1844;-68
2024/04/14 20:47:30;;;;;;;;;;;;;;;20.00;47.12;99810.59;11097860;26;1013;-68
2024/04/14 20:52:26;;;;;;;;;;;;;;;20.00;47.38;99801.81;11097395;26;884;-68
2024/04/14 20:57:24;;;;;;;;;;;;;;;20.00;47.34;99820.31;11098750;26;898;-68
2024/04/14 21:02:20;;;;;;;;;;;;;;;19.98;47.33;99808.97;11104685;26;1830;-68
2024/04/14 21:07:16;;;;;;;;;;;;;;;19.98;47.74;99787.78;11104214;26;899;-68
2024/04/14 21:12:12;;;;;;;;;;;;;;;19.97;47.52;99770.22;11104258;26;868;-68
2024/04/14 21:17:07;;;;;;;;;;;;;;;19.96;47.19;99765.84;11104355;26;831;-68
2024/04/14 21:22:03;;;;;;;;;;;;;;;19.95;47.14;99748.28;11105037;26;1853;-68
2024/04/14 21:26:59;;;;;;;;;;;;;;;19.94;47.21;99768.59;11104909;26;999;-67
2024/04/14 21:31:55;;;;;;;;;;;;;;;19.92;47.50;99759.88;11104188;26;945;-67
2024/04/14 21:36:51;;;;;;;;;;;;;;;19.91;47.38;99766.06;11104470;26;919;-67
2024/04/14 21:41:47;;;;;;;;;;;;;;;19.90;47.62;99757.28;11103772;26;1833;-67
2024/04/14 21:46:43;;;;;;;;;;;;;;;19.90;47.53;99783.75;11103704;26;815;-67
2024/04/14 21:51:38;;;;;;;;;;;;;;;19.89;47.56;99786.47;11103497;26;927;-67
2024/04/14 21:56:34;;;;;;;;;;;;;;;19.86;47.02;99768.97;11103398;26;899;-67
2024/04/14 22:01:30;;;;;;;;;;;;;;;19.85;47.48;99769.91;11103863;26;1829;-67
2024/04/14 22:06:26;;;;;;;;;;;;;;;19.84;47.40;99757.63;11103838;26;959;-67
2024/04/14 22:11:22;;;;;;;;;;;;;;;19.82;47.28;99751.53;11102473;26;875;-67
2024/04/14 22:16:18;;;;;;;;;;;;;;;19.81;47.28;99744.56;11103532;26;909;-67
2024/04/14 22:21:14;;;;;;;;;;;;;;;19.80;47.54;99756.06;11103976;26;1851;-67
2024/04/14 22:26:10;;;;;;;;;;;;;;;19.79;47.62;99772.00;11103136;26;871;-67
2024/04/14 22:31:05;;;;;;;;;;;;;;;19.77;47.21;99766.78;11103815;26;874;-68
2024/04/14 22:36:01;;;;;;;;;;;;;;;19.75;47.60;99766.00;11102929;26;838;-67
2024/04/14 22:40:57;;;;;;;;;;;;;;;19.74;47.41;99752.88;11102541;26;1850;-67
2024/04/14 22:45:53;;;;;;;;;;;;;;;19.73;47.30;99752.03;11102699;26;882;-67
2024/04/14 22:50:49;;;;;;;;;;;;;;;19.72;47.41;99744.16;11101935;26;879;-67
2024/04/14 22:55:45;;;;;;;;;;;;;;;19.69;47.46;99751.31;11102439;26;809;-67
2024/04/14 23:00:41;;;;;;;;;;;;;;;19.69;47.57;99727.50;11101984;26;1927;-67
2024/04/14 23:05:37;;;;;;;;;;;;;;;19.67;47.50;99726.72;11102815;26;823;-68
2024/04/14 23:10:33;;;;;;;;;;;;;;;19.66;47.60;99718.88;11102466;26;923;-67
2024/04/14 23:15:29;;;;;;;;;;;;;;;19.65;47.61;99707.44;11101843;26;947;-67
2024/04/14 23:20:25;;;;;;;;;;;;;;;19.64;47.63;99704.84;11101288;26;1850;-67
2024/04/14 23:25:21;;;;;;;;;;;;;;;19.63;47.66;99703.16;11102418;26;814;-67
2024/04/14 23:30:17;;;;;;;;;;;;;;;19.61;47.83;99705.03;11101373;26;897;-67
2024/04/14 23:35:12;;;;;;;;;;;;;;;19.60;47.55;99690.94;11101240;26;864;-67
2024/04/14 23:40:08;;;;;;;;;;;;;;;19.58;47.78;99694.59;11100871;26;1833;-67
2024/04/14 23:45:04;;;;;;;;;;;;;;;19.58;47.69;99694.59;11100882;26;875;-67
2024/04/14 23:50:00;;;;;;;;;;;;;;;19.57;47.63;99679.66;11100730;26;889;-68
2024/04/14 23:54:56;;;;;;;;;;;;;;;19.55;47.91;99684.19;11101318;26;953;-67
2024/04/14 23:59:52;;;;;;;;;;;;;;;19.54;47.91;99671.88;11100111;26;1199;-67
